Time;durP1;ratioP1;P1;durP2;ratioP2;P2;SDS_P1;SDS_P2;PMS_P1;PMS_P2;Temp;Humidity;BMP_temperature;BMP_pressure;BME280_temperature;BME280_humidity;BME280_pressure;Samples;Min_cycle;Max_cycle;Signal;HPM_P1;HPM_P2
2021/09/23 00:01:30;;;;;;;36.08;22.10;;;12.20;88.60;;;;;;5021854;28;20144;-78
2021/09/23 00:03:58;;;;;;;36.35;23.10;;;12.20;88.80;;;;;;5055937;28;20037;-79
2021/09/23 00:06:24;;;;;;;37.92;25.05;;;12.20;89.20;;;;;;5056008;28;20032;-78
2021/09/23 00:08:54;;;;;;;35.85;24.63;;;12.10;89.20;;;;;;5054968;28;20858;-78
2021/09/23 00:11:20;;;;;;;37.90;25.45;;;12.10;89.40;;;;;;5054862;28;20039;-79
2021/09/23 00:13:45;;;;;;;38.55;26.58;;;12.10;89.40;;;;;;5056295;28;20353;-78
2021/09/23 00:16:11;;;;;;;37.58;25.58;;;12.10;89.50;;;;;;5054852;28;20037;-79
2021/09/23 00:18:37;;;;;;;37.20;23.05;;;12.10;89.50;;;;;;5054764;28;20028;-79
2021/09/23 00:21:04;;;;;;;38.75;23.58;;;12.00;89.50;;;;;;5038150;28;20115;-78
2021/09/23 00:23:30;;;;;;;42.38;26.67;;;12.10;89.50;;;;;;5055677;28;20087;-78
2021/09/23 00:25:56;;;;;;;41.38;27.10;;;12.00;89.50;;;;;;5055942;28;20433;-78
2021/09/23 00:28:21;;;;;;;37.97;24.20;;;12.00;89.40;;;;;;5038247;28;20033;-78
2021/09/23 00:30:47;;;;;;;41.63;25.15;;;12.00;89.40;;;;;;5055944;28;20060;-78
2021/09/23 00:33:13;;;;;;;41.17;26.27;;;12.00;89.40;;;;;;5055734;28;20037;-78
2021/09/23 00:35:38;;;;;;;38.15;26.67;;;12.00;89.30;;;;;;5054952;28;20116;-79
2021/09/23 00:38:04;;;;;;;40.60;26.65;;;12.00;89.30;;;;;;5053817;28;20029;-79
2021/09/23 00:40:30;;;;;;;39.47;25.58;;;12.00;89.40;;;;;;5054134;28;20478;-79
2021/09/23 00:42:55;;;;;;;39.25;27.10;;;12.00;89.40;;;;;;5055151;28;20025;-78
2021/09/23 00:45:22;;;;;;;34.80;23.52;;;12.00;89.50;;;;;;5055753;28;20033;-78
2021/09/23 00:47:49;;;;;;;37.45;24.42;;;12.00;89.50;;;;;;5055506;28;20094;-78
2021/09/23 00:50:17;;;;;;;39.58;25.05;;;12.00;89.40;;;;;;5055466;28;20025;-79
2021/09/23 00:52:42;;;;;;;38.42;24.55;;;11.90;89.40;;;;;;5055344;28;20137;-78
2021/09/23 00:55:10;;;;;;;39.53;26.13;;;12.00;89.50;;;;;;5054648;28;20131;-79
2021/09/23 00:57:37;;;;;;;40.85;25.08;;;11.90;89.40;;;;;;5037605;28;20393;-79
2021/09/23 01:00:05;;;;;;;38.13;24.95;;;11.90;89.40;;;;;;5055323;28;20482;-79
2021/09/23 01:02:30;;;;;;;41.17;25.57;;;11.90;89.40;;;;;;5037181;28;20049;-79
2021/09/23 01:04:56;;;;;;;34.35;22.20;;;11.90;89.40;;;;;;5037430;28;20294;-79
2021/09/23 01:07:22;;;;;;;34.95;23.75;;;11.90;89.40;;;;;;5055384;28;20497;-79
2021/09/23 01:09:53;;;;;;;41.28;23.63;;;11.90;89.40;;;;;;5055092;28;20031;-79
2021/09/23 01:12:22;;;;;;;37.63;23.42;;;11.90;89.60;;;;;;5054816;28;20120;-79
2021/09/23 01:14:48;;;;;;;38.83;25.50;;;11.90;89.70;;;;;;5037205;28;20025;-78
2021/09/23 01:17:14;;;;;;;38.40;24.15;;;11.90;89.70;;;;;;5037190;28;20040;-78
2021/09/23 01:19:42;;;;;;;41.28;26.95;;;11.90;89.70;;;;;;5054884;28;20474;-79
2021/09/23 01:22:08;;;;;;;36.05;23.00;;;11.80;89.60;;;;;;5033504;28;20029;-79
2021/09/23 01:24:37;;;;;;;33.55;22.52;;;11.80;89.60;;;;;;5046353;28;20029;-79
2021/09/23 01:27:04;;;;;;;34.10;23.23;;;11.80;89.60;;;;;;5054781;28;20455;-79
2021/09/23 01:29:30;;;;;;;32.83;22.60;;;11.80;89.70;;;;;;5037005;28;20115;-78
2021/09/23 01:31:57;;;;;;;36.40;25.25;;;11.80;89.80;;;;;;5054308;28;20036;-78
2021/09/23 01:34:22;;;;;;;36.85;23.15;;;11.80;89.80;;;;;;5036601;28;20025;-78
2021/09/23 01:36:48;;;;;;;34.72;22.33;;;11.80;90.00;;;;;;5020202;28;20033;-78
2021/09/23 01:39:22;;;;;;;37.45;23.17;;;11.70;90.00;;;;;;5054782;28;20025;-79
2021/09/23 01:41:49;;;;;;;32.75;22.10;;;11.70;90.10;;;;;;5053195;28;20013;-78
2021/09/23 01:44:15;;;;;;;33.78;23.38;;;11.70;90.10;;;;;;5054175;28;20025;-78
2021/09/23 01:46:40;;;;;;;38.83;22.75;;;11.70;90.20;;;;;;5054361;28;20044;-78
2021/09/23 01:49:06;;;;;;;32.92;23.85;;;11.70;90.20;;;;;;5036275;28;20033;-78
2021/09/23 01:51:32;;;;;;;38.08;23.70;;;11.70;90.20;;;;;;5036268;28;20036;-79
2021/09/23 01:53:58;;;;;;;40.20;24.58;;;11.60;90.10;;;;;;5054188;28;20486;-79
2021/09/23 01:56:24;;;;;;;33.75;23.60;;;11.60;90.10;;;;;;5054165;28;20108;-78
2021/09/23 01:58:49;;;;;;;35.45;22.23;;;11.60;90.10;;;;;;5054238;28;20106;-79
2021/09/23 02:01:15;;;;;;;38.17;25.77;;;11.60;90.10;;;;;;5036276;28;20049;-79
2021/09/23 02:03:41;;;;;;;40.67;25.77;;;11.60;90.10;;;;;;5053926;28;20545;-78
2021/09/23 02:06:07;;;;;;;45.67;27.02;;;11.60;90.20;;;;;;5053548;28;20099;-78
2021/09/23 02:08:32;;;;;;;33.30;23.20;;;11.60;90.20;;;;;;5054118;28;20032;-78
2021/09/23 02:10:58;;;;;;;37.50;26.65;;;11.50;90.20;;;;;;5015989;28;20052;-79
2021/09/23 02:13:24;;;;;;;34.15;24.13;;;11.50;90.50;;;;;;5033895;28;20583;-78
2021/09/23 02:15:49;;;;;;;34.88;24.38;;;11.50;90.30;;;;;;5034858;28;20025;-79
2021/09/23 02:18:15;;;;;;;37.03;23.60;;;11.50;90.40;;;;;;5019776;28;20031;-78
2021/09/23 02:20:41;;;;;;;36.42;23.95;;;11.50;90.30;;;;;;5053328;28;20060;-79
2021/09/23 02:23:07;;;;;;;34.78;23.58;;;11.50;90.30;;;;;;5035904;28;20052;-78
2021/09/23 02:25:33;;;;;;;33.58;22.98;;;11.50;90.30;;;;;;5035676;28;20039;-78
2021/09/23 02:27:58;;;;;;;34.10;23.40;;;11.40;90.20;;;;;;5053445;28;20033;-79
2021/09/23 02:30:24;;;;;;;33.13;22.90;;;11.50;90.20;;;;;;5035851;28;20024;-79
2021/09/23 02:32:50;;;;;;;32.80;22.48;;;11.40;90.20;;;;;;5053176;28;20412;-78
2021/09/23 02:35:16;;;;;;;37.33;23.40;;;11.40;90.20;;;;;;5053033;28;20029;-78
2021/09/23 02:37:42;;;;;;;35.53;23.75;;;11.50;90.30;;;;;;5035664;28;20371;-78
2021/09/23 02:40:09;;;;;;;33.47;22.17;;;11.40;90.30;;;;;;5035527;28;20040;-79
2021/09/23 02:42:35;;;;;;;31.20;21.55;;;11.40;90.30;;;;;;5053412;28;20024;-79
2021/09/23 02:45:01;;;;;;;32.10;21.95;;;11.40;90.30;;;;;;5035301;28;20029;-79
2021/09/23 02:47:27;;;;;;;35.55;21.27;;;11.40;90.30;;;;;;5040461;28;20067;-79
2021/09/23 02:49:53;;;;;;;33.70;21.05;;;11.40;90.30;;;;;;5052619;28;20460;-79
2021/09/23 02:52:18;;;;;;;31.75;22.45;;;11.40;90.30;;;;;;5052762;28;20080;-78
2021/09/23 02:54:44;;;;;;;32.15;21.23;;;11.40;90.30;;;;;;5035249;28;20028;-78
2021/09/23 02:57:10;;;;;;;33.50;22.10;;;11.40;90.30;;;;;;5025868;28;20738;-78
2021/09/23 02:59:37;;;;;;;32.45;21.38;;;11.40;90.40;;;;;;5045539;28;20474;-78
2021/09/23 03:02:03;;;;;;;26.83;19.85;;;11.40;90.40;;;;;;5047792;28;20114;-79
2021/09/23 03:04:29;;;;;;;34.35;21.85;;;11.40;90.40;;;;;;5051727;28;20068;-79
2021/09/23 03:06:55;;;;;;;33.30;20.17;;;11.40;90.40;;;;;;5033807;28;21780;-79
2021/09/23 03:09:20;;;;;;;34.00;20.40;;;11.40;90.40;;;;;;5052635;28;20484;-78
2021/09/23 03:11:46;;;;;;;31.05;20.50;;;11.30;90.40;;;;;;5052404;28;20044;-79
2021/09/23 03:14:11;;;;;;;26.80;17.85;;;11.30;90.40;;;;;;5052622;28;20478;-78
2021/09/23 03:16:37;;;;;;;29.67;19.27;;;11.30;90.50;;;;;;5051552;28;20025;-79
2021/09/23 03:19:04;;;;;;;29.27;19.05;;;11.30;90.50;;;;;;5038258;28;20064;-79
2021/09/23 03:21:30;;;;;;;26.95;18.33;;;11.30;90.50;;;;;;5037566;28;20022;-79
2021/09/23 03:23:55;;;;;;;28.40;18.52;;;11.20;90.50;;;;;;5038351;28;20029;-79
2021/09/23 03:26:21;;;;;;;26.98;18.17;;;11.20;90.40;;;;;;5038312;28;20021;-78
2021/09/23 03:28:47;;;;;;;23.95;16.63;;;11.20;90.40;;;;;;5040253;28;20104;-79
2021/09/23 03:31:13;;;;;;;24.13;16.05;;;11.20;90.40;;;;;;5008724;28;20078;-78
2021/09/23 03:33:39;;;;;;;22.05;16.25;;;11.20;90.40;;;;;;5059452;28;20037;-79
2021/09/23 03:36:05;;;;;;;27.42;17.65;;;11.10;90.70;;;;;;5059629;28;20500;-78
2021/09/23 03:38:30;;;;;;;27.75;18.23;;;11.20;90.40;;;;;;5024729;28;20032;-78
2021/09/23 03:40:56;;;;;;;24.65;16.60;;;11.20;90.40;;;;;;5058103;28;20033;-79
2021/09/23 03:43:22;;;;;;;25.08;16.83;;;11.10;90.40;;;;;;5040747;28;20037;-78
2021/09/23 03:45:49;;;;;;;21.95;15.98;;;11.10;90.50;;;;;;5041309;28;20024;-78
2021/09/23 03:48:16;;;;;;;26.08;17.08;;;11.10;90.50;;;;;;5040971;28;20032;-79
2021/09/23 03:50:42;;;;;;;27.98;18.58;;;11.10;90.50;;;;;;5059242;28;20056;-78
2021/09/23 03:53:07;;;;;;;26.83;17.40;;;11.10;90.50;;;;;;5059163;28;20112;-78
2021/09/23 03:55:33;;;;;;;22.75;15.77;;;11.10;90.50;;;;;;5041466;28;20367;-78
2021/09/23 03:57:59;;;;;;;23.08;15.85;;;11.10;90.50;;;;;;5058916;28;20045;-79
2021/09/23 04:00:25;;;;;;;25.85;16.10;;;11.10;90.60;;;;;;5059154;28;20021;-78
2021/09/23 04:02:52;;;;;;;20.42;15.02;;;11.10;90.50;;;;;;5040447;28;20065;-78
2021/09/23 04:05:17;;;;;;;26.65;16.83;;;11.10;90.50;;;;;;5058952;28;20033;-79
2021/09/23 04:07:43;;;;;;;24.05;16.42;;;11.00;90.50;;;;;;5059219;28;20021;-78
2021/09/23 04:10:10;;;;;;;25.73;16.80;;;11.00;90.50;;;;;;5057993;28;20064;-78
2021/09/23 04:12:36;;;;;;;24.48;16.90;;;11.00;90.50;;;;;;5058600;28;20047;-79
2021/09/23 04:15:03;;;;;;;29.15;17.42;;;11.00;90.50;;;;;;5039360;28;20032;-79
2021/09/23 04:17:29;;;;;;;26.35;17.65;;;10.90;90.50;;;;;;5058926;28;20047;-79
2021/09/23 04:19:54;;;;;;;22.48;16.10;;;10.90;90.50;;;;;;5057775;28;20347;-79
2021/09/23 04:22:20;;;;;;;26.17;16.02;;;10.90;90.60;;;;;;5058523;28;20033;-79
2021/09/23 04:24:46;;;;;;;23.95;17.00;;;10.90;90.60;;;;;;5040865;28;20037;-79
2021/09/23 04:27:12;;;;;;;23.83;15.48;;;10.80;90.60;;;;;;5058725;28;20056;-79
2021/09/23 04:29:43;;;;;;;21.50;14.68;;;10.90;90.60;;;;;;5057030;28;20038;-79
2021/09/23 04:32:12;;;;;;;20.33;13.40;;;10.80;90.60;;;;;;5055259;28;20550;-79
2021/09/23 04:34:38;;;;;;;23.30;14.75;;;10.80;90.60;;;;;;5037503;28;20379;-79
2021/09/23 04:37:04;;;;;;;25.25;15.93;;;10.80;90.60;;;;;;5055171;28;20154;-78
2021/09/23 04:39:30;;;;;;;28.33;16.23;;;10.80;90.60;;;;;;5054767;28;20020;-78
2021/09/23 04:41:56;;;;;;;27.83;15.95;;;10.80;90.60;;;;;;5055253;28;20477;-78
2021/09/23 04:44:22;;;;;;;23.73;14.30;;;10.80;90.70;;;;;;5008896;28;20044;-79
2021/09/23 04:46:47;;;;;;;24.70;15.73;;;10.80;90.80;;;;;;5035116;28;20061;-78
2021/09/23 04:49:13;;;;;;;23.02;15.80;;;10.80;90.70;;;;;;5018909;28;20025;-79
2021/09/23 04:51:40;;;;;;;23.08;15.40;;;10.80;90.70;;;;;;5037437;28;20505;-78
2021/09/23 04:54:07;;;;;;;23.40;15.60;;;10.80;90.70;;;;;;5036623;28;20378;-78
2021/09/23 04:56:33;;;;;;;21.50;15.32;;;10.80;90.70;;;;;;5036948;28;20025;-78
2021/09/23 04:58:58;;;;;;;22.95;14.35;;;10.80;90.80;;;;;;5036629;28;20549;-79
2021/09/23 05:01:24;;;;;;;27.33;17.40;;;10.80;90.80;;;;;;5053752;28;20132;-79
2021/09/23 05:03:50;;;;;;;23.25;15.60;;;10.80;90.80;;;;;;5052147;28;20040;-79
2021/09/23 05:06:16;;;;;;;26.02;16.40;;;10.80;90.80;;;;;;5035839;28;20029;-78
2021/09/23 05:08:41;;;;;;;25.13;15.07;;;10.80;90.80;;;;;;5015332;28;20029;-79
2021/09/23 05:11:07;;;;;;;23.50;14.02;;;10.80;90.80;;;;;;5033615;28;20028;-78
2021/09/23 05:13:32;;;;;;;22.52;13.70;;;10.70;90.80;;;;;;5043089;28;20515;-79
2021/09/23 05:15:58;;;;;;;25.95;16.15;;;10.70;91.20;;;;;;5036611;28;20379;-79
2021/09/23 05:18:24;;;;;;;19.98;14.38;;;10.80;90.90;;;;;;5053580;28;20044;-78
2021/09/23 05:20:50;;;;;;;24.33;16.65;;;10.80;90.90;;;;;;5040420;28;20021;-78
2021/09/23 05:23:16;;;;;;;25.27;16.10;;;10.80;90.90;;;;;;5053683;28;20474;-78
2021/09/23 05:25:41;;;;;;;23.40;14.77;;;10.70;90.90;;;;;;5053856;28;20392;-78
2021/09/23 05:28:07;;;;;;;27.40;17.58;;;10.80;91.00;;;;;;5035656;28;20459;-79
2021/09/23 05:30:33;;;;;;;25.63;15.90;;;10.80;91.00;;;;;;5029638;28;20548;-78
2021/09/23 05:32:59;;;;;;;29.08;16.05;;;10.80;91.00;;;;;;5042501;28;20072;-79
2021/09/23 05:35:24;;;;;;;24.85;15.93;;;10.80;91.00;;;;;;5054405;28;20024;-79
2021/09/23 05:37:50;;;;;;;27.90;16.05;;;10.80;91.30;;;;;;5053266;28;20025;-79
2021/09/23 05:40:16;;;;;;;24.55;15.48;;;10.70;91.00;;;;;;5054382;28;20029;-79
2021/09/23 05:42:42;;;;;;;26.90;15.90;;;10.80;91.00;;;;;;5053919;28;20099;-80
2021/09/23 05:45:11;;;;;;;23.83;14.25;;;10.80;91.10;;;;;;5056781;28;20033;-80
2021/09/23 05:47:37;;;;;;;23.10;15.02;;;10.80;91.10;;;;;;5038785;28;20033;-81
2021/09/23 05:50:04;;;;;;;20.55;14.15;;;10.80;91.10;;;;;;5055395;28;20070;-81
2021/09/23 05:52:30;;;;;;;25.05;16.73;;;10.80;91.10;;;;;;5033382;28;20029;-80
2021/09/23 05:54:56;;;;;;;20.83;14.07;;;10.80;91.10;;;;;;5040316;28;20052;-80
2021/09/23 05:57:32;;;;;;;24.83;15.43;;;10.80;91.10;;;;;;5043662;28;20056;-80
2021/09/23 05:59:58;;;;;;;26.27;16.85;;;10.90;91.10;;;;;;5054540;28;20560;-80
2021/09/23 06:02:24;;;;;;;24.20;15.75;;;10.90;91.10;;;;;;5054540;28;20132;-80
2021/09/23 06:04:49;;;;;;;25.38;16.25;;;10.90;91.10;;;;;;5053351;28;20120;-80
2021/09/23 06:07:16;;;;;;;28.83;18.88;;;11.00;91.20;;;;;;5054331;28;20661;-80
2021/09/23 06:09:41;;;;;;;28.33;15.95;;;11.00;91.20;;;;;;5053179;28;20033;-80
2021/09/23 06:12:08;;;;;;;30.08;18.85;;;11.10;91.20;;;;;;5054362;28;20532;-80
2021/09/23 06:14:33;;;;;;;27.30;15.98;;;11.10;91.20;;;;;;5036240;28;20035;-80
2021/09/23 06:16:59;;;;;;;28.13;17.48;;;11.20;91.20;;;;;;5054065;28;20033;-80
2021/09/23 06:19:25;;;;;;;27.70;17.52;;;11.30;91.20;;;;;;5053884;28;20032;-79
2021/09/23 06:21:50;;;;;;;28.55;17.52;;;11.30;91.30;;;;;;5053947;28;20029;-80
2021/09/23 06:24:16;;;;;;;26.27;15.65;;;11.40;91.30;;;;;;5032682;28;20036;-81
2021/09/23 06:26:42;;;;;;;25.67;16.17;;;11.40;91.30;;;;;;5033820;28;20033;-80
2021/09/23 06:29:07;;;;;;;26.85;16.85;;;11.50;91.30;;;;;;5033768;28;20032;-80
2021/09/23 06:31:34;;;;;;;22.58;15.05;;;11.50;91.30;;;;;;5047976;28;20082;-82
2021/09/23 06:33:59;;;;;;;28.23;15.57;;;11.60;91.20;;;;;;5034969;28;20045;-75
2021/09/23 06:36:25;;;;;;;28.95;17.08;;;11.70;91.30;;;;;;5034876;28;20437;-75
2021/09/23 06:38:50;;;;;;;27.30;14.63;;;11.70;91.30;;;;;;5051382;28;20082;-75
2021/09/23 06:41:16;;;;;;;27.80;15.23;;;11.80;91.30;;;;;;5018248;28;20025;-75
2021/09/23 06:43:42;;;;;;;26.83;15.77;;;11.90;91.30;;;;;;5031059;28;20048;-76
2021/09/23 06:46:10;;;;;;;26.58;16.90;;;12.00;91.30;;;;;;5042108;28;20130;-75
2021/09/23 06:48:35;;;;;;;25.52;16.80;;;12.10;91.30;;;;;;5050255;28;20386;-76
2021/09/23 06:51:01;;;;;;;21.23;13.80;;;12.20;91.30;;;;;;5050392;28;20029;-75
2021/09/23 06:53:27;;;;;;;29.23;17.83;;;12.30;91.30;;;;;;5029561;28;20041;-75
2021/09/23 06:55:52;;;;;;;31.00;17.67;;;12.40;91.20;;;;;;5024149;28;20025;-75
2021/09/23 06:58:18;;;;;;;28.70;16.27;;;12.60;91.20;;;;;;5009234;28;20041;-75
2021/09/23 07:00:43;;;;;;;25.67;16.38;;;12.70;91.10;;;;;;5033882;28;20036;-75
2021/09/23 07:03:09;;;;;;;25.65;16.23;;;12.90;90.90;;;;;;5030587;28;20057;-75
2021/09/23 07:05:35;;;;;;;23.77;16.20;;;13.00;90.80;;;;;;4982289;28;20030;-75
2021/09/23 07:08:00;;;;;;;26.42;16.00;;;13.20;90.60;;;;;;5027162;28;20424;-75
2021/09/23 07:10:26;;;;;;;26.98;15.88;;;13.30;90.50;;;;;;5034807;28;20029;-75
2021/09/23 07:12:52;;;;;;;26.10;16.25;;;13.40;90.40;;;;;;5003227;28;20486;-75
2021/09/23 07:15:17;;;;;;;28.50;15.68;;;13.50;90.20;;;;;;5018385;28;20037;-76
2021/09/23 07:17:43;;;;;;;22.27;14.70;;;13.60;90.10;;;;;;5031081;28;20029;-75
2021/09/23 07:20:09;;;;;;;24.13;14.02;;;13.70;89.90;;;;;;4998433;28;20037;-75
2021/09/23 07:22:35;;;;;;;27.83;14.73;;;13.90;89.60;;;;;;5040435;28;20489;-75
2021/09/23 07:25:00;;;;;;;24.33;16.30;;;14.10;89.20;;;;;;5050168;28;20033;-76
2021/09/23 07:27:26;;;;;;;23.20;13.55;;;14.20;88.70;;;;;;5033887;28;20506;-75
2021/09/23 07:29:52;;;;;;;22.38;15.20;;;14.20;88.30;;;;;;5033404;28;20489;-75
2021/09/23 07:32:18;;;;;;;26.77;15.20;;;14.30;87.80;;;;;;5051414;28;20496;-75
2021/09/23 07:34:44;;;;;;;24.13;14.30;;;14.40;88.10;;;;;;5051807;28;20033;-75
2021/09/23 07:37:10;;;;;;;17.55;13.48;;;14.50;87.90;;;;;;5051931;28;20048;-75
2021/09/23 07:39:36;;;;;;;20.98;14.48;;;14.60;87.70;;;;;;5032414;28;20025;-75
2021/09/23 07:42:02;;;;;;;25.50;14.60;;;14.70;87.50;;;;;;5034334;28;20083;-75
2021/09/23 07:44:28;;;;;;;23.67;13.65;;;14.80;86.80;;;;;;5030374;28;20126;-75
2021/09/23 07:46:55;;;;;;;27.23;15.05;;;14.90;86.80;;;;;;5035982;28;20104;-75
2021/09/23 07:49:21;;;;;;;21.42;13.55;;;15.00;86.80;;;;;;5034041;28;20029;-76
2021/09/23 07:51:47;;;;;;;22.52;14.30;;;15.10;86.50;;;;;;5051707;28;20088;-76
2021/09/23 07:54:13;;;;;;;28.02;14.13;;;15.20;86.20;;;;;;5050575;28;20025;-75
2021/09/23 07:56:40;;;;;;;22.98;15.20;;;15.30;86.00;;;;;;5051459;28;20037;-75
2021/09/23 07:59:05;;;;;;;26.52;15.68;;;15.40;85.50;;;;;;5028154;28;20405;-75
2021/09/23 08:01:32;;;;;;;22.85;15.13;;;15.50;85.30;;;;;;5033876;28;20083;-75
2021/09/23 08:03:58;;;;;;;20.77;15.55;;;15.50;85.50;;;;;;5034131;28;20452;-75
2021/09/23 08:06:23;;;;;;;25.38;16.98;;;15.50;85.60;;;;;;5037717;28;20132;-76
2021/09/23 08:08:49;;;;;;;22.85;16.23;;;15.60;85.50;;;;;;5037410;28;20033;-75
2021/09/23 08:11:15;;;;;;;20.13;14.40;;;15.70;85.40;;;;;;5020998;28;20021;-76
2021/09/23 08:13:40;;;;;;;20.88;14.48;;;15.80;85.30;;;;;;5054108;28;20056;-75
2021/09/23 08:16:06;;;;;;;24.80;16.02;;;15.80;85.20;;;;;;5037582;28;20028;-75
2021/09/23 08:18:32;;;;;;;26.90;16.48;;;15.90;85.10;;;;;;5034165;28;20063;-75
2021/09/23 08:20:58;;;;;;;24.65;15.20;;;15.90;85.10;;;;;;5019844;28;20382;-76
2021/09/23 08:23:24;;;;;;;22.90;16.73;;;16.10;85.10;;;;;;5054782;28;20111;-75
2021/09/23 08:25:51;;;;;;;21.20;16.02;;;16.20;84.90;;;;;;5054988;28;20046;-75
2021/09/23 08:28:17;;;;;;;29.08;15.50;;;16.30;84.50;;;;;;5037172;28;20041;-76
2021/09/23 08:30:44;;;;;;;27.13;17.23;;;16.40;84.10;;;;;;5054890;28;20075;-75
2021/09/23 08:33:10;;;;;;;25.02;15.80;;;16.50;83.90;;;;;;5037203;28;20037;-76
2021/09/23 08:35:36;;;;;;;23.77;15.40;;;16.60;83.60;;;;;;5054063;28;20797;-75
2021/09/23 08:38:01;;;;;;;22.20;15.70;;;16.70;83.40;;;;;;5021209;28;20115;-75
2021/09/23 08:40:27;;;;;;;24.10;15.43;;;16.90;83.10;;;;;;5037192;28;20503;-75
2021/09/23 08:42:53;;;;;;;21.15;15.50;;;17.00;82.40;;;;;;5053879;28;20122;-76
2021/09/23 08:45:20;;;;;;;21.73;15.57;;;17.10;82.20;;;;;;5053800;28;20037;-75
2021/09/23 08:47:46;;;;;;;32.58;17.05;;;17.30;82.40;;;;;;5037035;28;20115;-76
2021/09/23 08:50:14;;;;;;;23.38;16.88;;;17.40;82.30;;;;;;5037555;28;20110;-76
2021/09/23 08:52:41;;;;;;;24.90;18.52;;;17.50;82.40;;;;;;5037261;28;20076;-76
2021/09/23 08:55:07;;;;;;;29.85;18.58;;;17.60;82.30;;;;;;5041119;28;20489;-75
2021/09/23 08:57:33;;;;;;;30.65;19.23;;;17.70;82.00;;;;;;5020300;28;20087;-75
2021/09/23 09:00:09;;;;;;;31.42;19.77;;;17.70;82.00;;;;;;5033150;28;20029;-76
2021/09/23 09:02:34;;;;;;;30.58;20.10;;;17.80;82.10;;;;;;5030854;28;20053;-76
2021/09/23 09:05:00;;;;;;;26.25;19.52;;;17.90;82.20;;;;;;5054980;28;20043;-76
2021/09/23 09:07:30;;;;;;;28.90;19.83;;;18.10;82.00;;;;;;5036826;28;20095;-76
2021/09/23 09:10:09;;;;;;;27.52;19.40;;;18.20;81.60;;;;;;5037261;28;20112;-76
2021/09/23 09:12:38;;;;;;;25.08;17.85;;;18.30;81.50;;;;;;5036991;28;20075;-76
2021/09/23 09:15:05;;;;;;;25.30;18.02;;;18.40;81.30;;;;;;5021037;28;20025;-76
2021/09/23 09:17:37;;;;;;;22.48;17.65;;;18.50;80.50;;;;;;5053907;28;20132;-76
2021/09/23 09:20:06;;;;;;;24.25;16.85;;;18.60;80.30;;;;;;5054467;28;20025;-76
2021/09/23 09:22:33;;;;;;;24.98;17.73;;;18.60;80.10;;;;;;5036701;28;20021;-76
2021/09/23 09:25:02;;;;;;;27.33;17.80;;;18.70;79.60;;;;;;5036720;28;20128;-76
2021/09/23 09:27:30;;;;;;;;;;;18.70;79.40;;;;;;5055053;28;20021;-76
2021/09/23 09:29:58;;;;;;;25.05;16.67;;;18.70;79.60;;;;;;5032880;28;19909;-76
2021/09/23 09:32:35;;;;;;;27.50;17.05;;;18.80;79.80;;;;;;5034296;28;20099;-76
2021/09/23 09:35:00;;;;;;;24.60;17.27;;;18.80;79.70;;;;;;5033372;28;20033;-75
2021/09/23 09:37:26;;;;;;;22.23;15.90;;;18.80;79.60;;;;;;5020060;28;20029;-75
2021/09/23 09:39:56;;;;;;;29.55;16.17;;;18.90;79.50;;;;;;5036517;28;20538;-76
2021/09/23 09:42:22;;;;;;;23.50;16.92;;;18.90;79.30;;;;;;5036494;28;20436;-76
2021/09/23 09:44:59;;;;;;;25.63;15.88;;;18.90;79.50;;;;;;5036467;28;20025;-76
2021/09/23 09:47:33;;;;;;;24.83;16.15;;;19.00;79.20;;;;;;5033053;28;20131;-76
2021/09/23 09:50:09;;;;;;;23.52;15.38;;;19.00;78.40;;;;;;5033205;28;20017;-76
2021/09/23 09:52:34;;;;;;;22.20;15.80;;;19.00;78.30;;;;;;5032900;28;20029;-76
2021/09/23 09:55:09;;;;;;;21.38;15.55;;;18.90;78.70;;;;;;5015398;28;20033;-77
2021/09/23 09:57:44;;;;;;;24.38;15.30;;;18.90;79.00;;;;;;5033692;28;20490;-76
2021/09/23 10:00:11;;;;;;;22.67;14.90;;;18.90;78.70;;;;;;5016434;28;20075;-75
2021/09/23 10:02:37;;;;;;;17.88;12.98;;;19.10;78.60;;;;;;5044043;28;20538;-76
2021/09/23 10:05:03;;;;;;;22.02;12.48;;;19.20;77.90;;;;;;5036240;28;20115;-76
2021/09/23 10:07:34;;;;;;;19.02;12.90;;;19.40;78.10;;;;;;5053876;28;20055;-76
2021/09/23 10:10:00;;;;;;;23.02;12.70;;;19.50;78.50;;;;;;5035932;28;20021;-76
2021/09/23 10:12:28;;;;;;;19.73;13.00;;;19.60;77.20;;;;;;5035945;28;20124;-76
2021/09/23 10:14:54;;;;;;;18.13;12.07;;;19.80;76.80;;;;;;5035546;28;20033;-76
2021/09/23 10:17:22;;;;;;;17.25;10.52;;;19.90;76.80;;;;;;5030853;28;20052;-75
2021/09/23 10:19:48;;;;;;;16.60;11.30;;;19.90;75.90;;;;;;5051774;28;20025;-76
2021/09/23 10:22:14;;;;;;;14.00;10.93;;;19.90;74.80;;;;;;5029202;28;20025;-76
2021/09/23 10:24:43;;;;;;;18.80;11.55;;;19.90;75.10;;;;;;4999599;28;20056;-76
2021/09/23 10:29:55;;;;;;;14.90;10.55;;;20.00;74.90;;;;;;5053105;28;20035;-76
2021/09/23 10:32:22;;;;;;;15.85;10.40;;;20.10;76.00;;;;;;5029193;28;20131;-75
2021/09/23 10:34:51;;;;;;;16.20;10.68;;;20.30;76.70;;;;;;5015532;28;20128;-75
2021/09/23 10:37:18;;;;;;;13.60;9.85;;;20.30;75.90;;;;;;5047377;28;20025;-75
2021/09/23 10:39:45;;;;;;;14.45;10.20;;;20.40;74.50;;;;;;5052741;28;20021;-75
2021/09/23 10:42:23;;;;;;;21.05;10.35;;;20.40;74.40;;;;;;5028863;28;20038;-75
2021/09/23 10:44:51;;;;;;;15.10;10.70;;;20.60;74.20;;;;;;5032817;28;20028;-75
2021/09/23 10:47:34;;;;;;;13.70;9.45;;;20.70;73.40;;;;;;5017200;28;20028;-75
2021/09/23 10:50:01;;;;;;;15.63;8.52;;;20.90;72.70;;;;;;5022282;28;20025;-75
2021/09/23 10:52:30;;;;;;;14.20;8.80;;;20.80;71.10;;;;;;5052136;28;20029;-75
2021/09/23 10:54:58;;;;;;;13.95;9.27;;;20.80;71.40;;;;;;5051494;28;20025;-75
2021/09/23 10:57:26;;;;;;;15.50;8.70;;;20.80;71.20;;;;;;5034152;28;20040;-76
2021/09/23 10:59:52;;;;;;;18.65;9.10;;;20.70;71.40;;;;;;5020268;28;20025;-76
2021/09/23 11:02:31;;;;;;;14.23;8.02;;;20.60;70.90;;;;;;5032497;28;20153;-75
2021/09/23 11:04:59;;;;;;;14.80;8.27;;;20.60;71.50;;;;;;5038020;28;20025;-75
2021/09/23 11:07:29;;;;;;;15.67;7.20;;;20.60;71.40;;;;;;5052438;28;20033;-75
2021/09/23 11:10:02;;;;;;;15.43;7.25;;;20.60;71.70;;;;;;5031184;28;20057;-75
2021/09/23 11:12:28;;;;;;;16.20;7.90;;;20.60;71.80;;;;;;5046034;28;20068;-76
2021/09/23 11:14:57;;;;;;;17.20;6.82;;;20.60;72.40;;;;;;5023848;28;20661;-75
2021/09/23 11:17:24;;;;;;;19.13;6.85;;;20.60;70.40;;;;;;5014677;28;20033;-75
2021/09/23 11:20:04;;;;;;;15.45;6.50;;;20.60;69.40;;;;;;5014480;28;20452;-75
2021/09/23 11:22:40;;;;;;;14.35;6.45;;;20.50;69.50;;;;;;5032230;28;20071;-76
2021/09/23 11:25:12;;;;;;;18.45;6.93;;;20.50;70.20;;;;;;5034449;28;20131;-76
2021/09/23 11:27:39;;;;;;;15.23;6.72;;;20.50;70.60;;;;;;5051136;28;20474;-76
2021/09/23 11:30:06;;;;;;;19.27;7.72;;;20.50;70.90;;;;;;5017573;28;20068;-75
2021/09/23 11:32:32;;;;;;;15.82;7.75;;;20.50;71.10;;;;;;5033770;28;20402;-75
2021/09/23 11:35:05;;;;;;;13.65;7.18;;;20.60;70.90;;;;;;5033618;28;20029;-75
2021/09/23 11:37:32;;;;;;;20.88;7.07;;;20.70;70.70;;;;;;5017251;28;20513;-76
2021/09/23 11:40:01;;;;;;;13.45;6.60;;;20.80;70.00;;;;;;5018455;28;20045;-74
2021/09/23 11:42:36;;;;;;;10.35;6.75;;;20.90;70.10;;;;;;5054472;28;20033;-75
2021/09/23 11:45:15;;;;;;;15.90;6.32;;;21.00;70.70;;;;;;5037167;28;20052;-75
2021/09/23 11:48:15;;;;;;;15.73;7.43;;;21.00;70.70;;;;;;5037085;28;20098;-74
2021/09/23 11:50:46;;;;;;;15.07;6.68;;;21.00;70.70;;;;;;5032263;28;20044;-75
2021/09/23 11:53:17;;;;;;;9.80;6.63;;;21.00;69.70;;;;;;5053190;28;20033;-75
2021/09/23 11:55:53;;;;;;;12.23;6.57;;;21.00;69.20;;;;;;5036907;28;20029;-75
2021/09/23 11:58:19;;;;;;;15.95;7.97;;;21.00;68.90;;;;;;5036890;28;20532;-74
2021/09/23 12:00:48;;;;;;;12.85;6.85;;;21.00;69.00;;;;;;5037007;28;20060;-75
2021/09/23 12:03:15;;;;;;;10.68;6.65;;;21.10;69.60;;;;;;5036150;28;20095;-75
2021/09/23 12:05:43;;;;;;;14.25;6.45;;;21.20;69.00;;;;;;5053932;28;20025;-75
2021/09/23 12:08:12;;;;;;;9.38;5.45;;;21.30;68.60;;;;;;5036290;28;20036;-74
2021/09/23 12:11:04;;;;;;;13.65;6.50;;;21.30;68.70;;;;;;5054483;28;20428;-74
2021/09/23 12:13:37;;;;;;;10.82;6.22;;;21.40;68.80;;;;;;5036247;28;20029;-74
2021/09/23 12:16:07;;;;;;;11.80;6.10;;;21.50;68.80;;;;;;5054097;28;20025;-75
2021/09/23 12:18:34;;;;;;;14.10;6.50;;;21.60;68.50;;;;;;5054251;28;20040;-75
2021/09/23 12:21:07;;;;;;;10.25;5.78;;;21.80;67.90;;;;;;5038209;28;20036;-75
2021/09/23 12:23:40;;;;;;;17.67;5.97;;;21.80;67.30;;;;;;5054063;28;20381;-74
2021/09/23 12:26:19;;;;;;;14.13;6.20;;;21.90;67.90;;;;;;5036348;28;20036;-75
2021/09/23 12:29:00;;;;;;;10.07;6.40;;;21.80;67.40;;;;;;5035805;28;20026;-75
2021/09/23 12:31:58;;;;;;;12.13;6.95;;;21.80;67.50;;;;;;5016661;28;20028;-75